Weather at Marj Ruhayyil Air Base

Public forecast

Using degrees Celsius for public forecast. Weather courtesy of forecast.io.

Closest aviation weather report (METAR) to Marj Ruhayyil Air Base

Closest report is Damascus International Airport, 8.1 nm (14.9 km) NNE.

2024/05/24 19:00 (retrieved 13 minutes ago)

OSDI 241900Z 24012KT CAVOK 18/10 Q1012

Closest aviation forecast (TAF) to Marj Ruhayyil Air Base

Closest forecast is Damascus International Airport, 8.1 nm (14.9 km) NNE.

2024/05/24 18:06 (retrieved 1 hour ago)

TAF OSDI 241600Z 2418/2524 24020KT CAVOK TEMPO 2512/2518 23015G25KT